Time,TemperatureF,DewpointF,PressureIn,WindDirection,WindDirectionDegrees,WindSpeedMPH,WindSpeedGustMPH,Humidity,HourlyPrecipIn,Conditions,Clouds,dailyrainin,SoftwareType,DateUTC
2013-07-26 00:02:00,64.8,61.5,22.02,NE,45,2.0,3.0,89,0.00,,,0.00,meteohub,2013-07-26 05:02:00,
2013-07-26 00:07:00,64.8,61.7,22.01,NE,45,2.0,4.0,90,0.00,,,0.00,meteohub,2013-07-26 05:07:00,
2013-07-26 00:12:00,64.6,61.3,22.01,West,270,0.0,4.0,89,0.00,,,0.00,meteohub,2013-07-26 05:12:00,
2013-07-26 00:17:00,64.2,61.0,22.01,NW,315,2.0,4.0,89,0.00,,,0.00,meteohub,2013-07-26 05:17:00,
2013-07-26 00:22:00,64.2,61.0,22.01,West,270,1.0,2.0,89,0.00,,,0.00,meteohub,2013-07-26 05:22:00,
2013-07-26 00:27:00,64.2,61.0,22.01,West,270,2.0,2.0,89,0.00,,,0.00,meteohub,2013-07-26 05:27:00,
2013-07-26 00:32:00,64.0,61.0,22.02,SW,225,2.0,2.0,90,0.00,,,0.00,meteohub,2013-07-26 05:32:00,
2013-07-26 00:37:00,64.0,61.0,22.02,West,270,2.0,2.0,90,0.00,,,0.00,meteohub,2013-07-26 05:37:00,
2013-07-26 00:42:00,64.2,61.2,22.02,SW,225,2.0,4.0,90,0.00,,,0.00,meteohub,2013-07-26 05:42:00,
2013-07-26 00:47:00,64.4,61.7,22.02,West,270,2.0,4.0,91,0.00,,,0.00,meteohub,2013-07-26 05:47:00,
2013-07-26 00:52:00,64.6,61.9,22.03,West,270,2.0,4.0,91,0.00,,,0.00,meteohub,2013-07-26 05:52:00,
2013-07-26 00:57:00,64.6,61.5,22.03,SW,225,1.0,3.0,90,0.00,,,0.00,meteohub,2013-07-26 05:57:00,
2013-07-26 01:02:00,64.6,61.5,22.03,SW,225,2.0,3.0,90,0.00,,,0.00,meteohub,2013-07-26 06:02:00,
2013-07-26 01:07:00,64.6,61.5,22.03,SW,225,2.0,2.0,90,0.00,,,0.00,meteohub,2013-07-26 06:07:00,
2013-07-26 01:12:00,64.2,61.0,22.04,NE,45,2.0,4.0,89,0.00,,,0.00,meteohub,2013-07-26 06:12:00,
2013-07-26 01:17:00,64.4,61.3,22.04,North,0,2.0,5.0,90,0.00,,,0.00,meteohub,2013-07-26 06:17:00,
2013-07-26 01:22:00,64.4,61.3,22.04,West,270,2.0,5.0,90,0.00,,,0.00,meteohub,2013-07-26 06:22:00,
2013-07-26 01:27:00,64.2,61.0,22.04,West,270,1.0,6.0,89,0.00,,,0.00,meteohub,2013-07-26 06:27:00,
2013-07-26 01:32:00,64.0,60.8,22.04,SW,225,2.0,6.0,89,0.00,,,0.00,meteohub,2013-07-26 06:32:00,
2013-07-26 01:37:00,64.0,60.8,22.04,SW,225,2.0,6.0,89,0.00,,,0.00,meteohub,2013-07-26 06:37:00,
2013-07-26 01:42:00,63.9,60.8,22.04,North,0,0.0,4.0,90,0.00,,,0.00,meteohub,2013-07-26 06:42:00,
2013-07-26 01:47:00,63.9,60.8,22.04,North,0,3.0,4.0,90,0.00,,,0.00,meteohub,2013-07-26 06:47:00,
2013-07-26 01:52:00,63.7,60.6,22.04,West,270,2.0,4.0,90,0.00,,,0.00,meteohub,2013-07-26 06:52:00,
2013-07-26 01:57:00,63.5,60.4,22.04,NW,315,1.0,3.0,90,0.00,,,0.00,meteohub,2013-07-26 06:57:00,
2013-07-26 02:02:00,63.3,60.6,22.05,NE,45,2.0,3.0,91,0.00,,,0.00,meteohub,2013-07-26 07:02:00,
2013-07-26 02:07:00,63.5,60.8,22.05,West,270,2.0,2.0,91,0.00,,,0.00,meteohub,2013-07-26 07:07:00,
2013-07-26 02:12:00,63.5,60.8,22.05,North,0,2.0,4.0,91,0.00,,,0.00,meteohub,2013-07-26 07:12:00,
2013-07-26 02:17:00,63.3,60.6,22.05,West,270,2.0,4.0,91,0.00,,,0.00,meteohub,2013-07-26 07:17:00,
2013-07-26 02:22:00,63.1,60.4,22.05,NE,45,1.0,4.0,91,0.00,,,0.00,meteohub,2013-07-26 07:22:00,
2013-07-26 02:27:00,63.1,60.4,22.05,East,90,2.0,3.0,91,0.00,,,0.00,meteohub,2013-07-26 07:27:00,
2013-07-26 02:32:00,63.1,60.8,22.05,East,90,2.0,3.0,92,0.00,,,0.00,meteohub,2013-07-26 07:32:00,
2013-07-26 02:37:00,63.1,60.8,22.05,West,270,0.0,3.0,92,0.00,,,0.00,meteohub,2013-07-26 07:37:00,
2013-07-26 02:42:00,63.1,60.8,22.05,SW,225,2.0,3.0,92,0.00,,,0.00,meteohub,2013-07-26 07:42:00,
2013-07-26 02:47:00,62.4,60.4,22.05,SW,225,2.0,3.0,93,0.00,,,0.00,meteohub,2013-07-26 07:47:00,
2013-07-26 02:52:00,62.1,60.3,22.05,SW,225,2.0,2.0,94,0.00,,,0.00,meteohub,2013-07-26 07:52:00,
2013-07-26 02:57:00,61.9,60.4,22.05,SW,225,1.0,2.0,95,0.00,,,0.00,meteohub,2013-07-26 07:57:00,
2013-07-26 03:02:00,61.7,60.3,22.05,SW,225,0.0,2.0,95,0.00,,,0.00,meteohub,2013-07-26 08:02:00,
2013-07-26 03:07:00,61.3,60.3,22.05,West,270,2.0,2.0,96,0.00,,,0.00,meteohub,2013-07-26 08:07:00,
2013-07-26 03:12:00,61.2,60.1,22.05,SW,225,0.0,2.0,96,0.00,,,0.00,meteohub,2013-07-26 08:12:00,
2013-07-26 03:17:00,61.2,60.3,22.05,East,90,0.0,2.0,97,0.00,,,0.00,meteohub,2013-07-26 08:17:00,
2013-07-26 03:22:00,61.2,60.3,22.05,SE,135,0.0,2.0,97,0.00,,,0.00,meteohub,2013-07-26 08:22:00,
2013-07-26 03:27:00,61.0,60.1,22.05,SE,135,0.0,1.0,97,0.00,,,0.00,meteohub,2013-07-26 08:27:00,
2013-07-26 03:32:00,60.8,59.9,22.05,SW,225,0.0,0.0,97,0.00,,,0.00,meteohub,2013-07-26 08:32:00,
2013-07-26 03:37:00,60.6,60.1,22.05,West,270,0.0,0.0,98,0.00,,,0.00,meteohub,2013-07-26 08:37:00,
2013-07-26 03:42:00,60.4,60.1,22.04,SW,225,0.0,0.0,99,0.00,,,0.00,meteohub,2013-07-26 08:42:00,
2013-07-26 03:47:00,60.4,60.1,22.05,SW,225,1.0,2.0,99,0.00,,,0.00,meteohub,2013-07-26 08:47:00,
2013-07-26 03:52:00,60.4,60.1,22.04,SW,225,0.0,2.0,99,0.00,,,0.00,meteohub,2013-07-26 08:52:00,
2013-07-26 03:57:00,60.3,59.9,22.05,SW,225,2.0,2.0,99,0.00,,,0.00,meteohub,2013-07-26 08:57:00,
2013-07-26 04:02:00,60.1,59.7,22.05,SW,225,2.0,2.0,99,0.00,,,0.00,meteohub,2013-07-26 09:02:00,
2013-07-26 04:07:00,60.1,59.7,22.04,SW,225,2.0,2.0,99,0.00,,,0.00,meteohub,2013-07-26 09:07:00,
2013-07-26 04:12:00,60.1,59.7,22.04,SW,225,0.0,2.0,99,0.00,,,0.00,meteohub,2013-07-26 09:12:00,
2013-07-26 04:17:00,59.9,59.5,22.04,SW,225,0.0,2.0,99,0.00,,,0.00,meteohub,2013-07-26 09:17:00,
2013-07-26 04:22:00,59.7,59.4,22.04,SW,225,0.0,2.0,99,0.00,,,0.00,meteohub,2013-07-26 09:22:00,
2013-07-26 04:27:00,59.9,59.5,22.04,West,270,1.0,0.0,99,0.00,,,0.00,meteohub,2013-07-26 09:27:00,
2013-07-26 04:32:00,59.9,59.5,22.04,NE,45,0.0,2.0,99,0.00,,,0.00,meteohub,2013-07-26 09:32:00,
2013-07-26 04:37:00,59.9,59.5,22.04,West,270,0.0,2.0,99,0.00,,,0.00,meteohub,2013-07-26 09:37:00,
2013-07-26 04:42:00,59.7,59.4,22.04,SW,225,0.0,2.0,99,0.00,,,0.00,meteohub,2013-07-26 09:42:00,
2013-07-26 04:47:00,59.5,59.2,22.04,SW,225,1.0,0.0,99,0.00,,,0.00,meteohub,2013-07-26 09:47:00,
2013-07-26 04:52:00,59.5,59.2,22.05,SW,225,0.0,2.0,99,0.00,,,0.00,meteohub,2013-07-26 09:52:00,
2013-07-26 04:57:00,59.5,59.2,22.04,SE,135,0.0,2.0,99,0.00,,,0.00,meteohub,2013-07-26 09:57:00,
2013-07-26 05:02:00,59.7,59.4,22.05,SW,225,0.0,1.0,99,0.00,,,0.00,meteohub,2013-07-26 10:02:00,
2013-07-26 05:07:00,59.9,59.5,22.05,SW,225,0.0,0.0,99,0.00,,,0.00,meteohub,2013-07-26 10:07:00,
2013-07-26 05:12:00,60.1,59.7,22.05,West,270,0.0,0.0,99,0.00,,,0.00,meteohub,2013-07-26 10:12:00,
2013-07-26 05:17:00,60.1,59.7,22.05,West,270,2.0,2.0,99,0.00,,,0.00,meteohub,2013-07-26 10:17:00,
2013-07-26 05:22:00,60.3,59.9,22.05,West,270,2.0,2.0,99,0.00,,,0.00,meteohub,2013-07-26 10:22:00,
2013-07-26 05:27:00,60.6,60.3,22.05,SW,225,2.0,2.0,99,0.00,,,0.00,meteohub,2013-07-26 10:27:00,
2013-07-26 05:32:00,60.8,60.3,22.04,West,270,2.0,3.0,98,0.00,,,0.00,meteohub,2013-07-26 10:32:00,
2013-07-26 05:37:00,61.0,60.4,22.05,West,270,3.0,4.0,98,0.00,,,0.00,meteohub,2013-07-26 10:37:00,
2013-07-26 05:43:00,61.0,60.4,22.04,SW,225,2.0,4.0,98,0.00,,,0.00,meteohub,2013-07-26 10:43:00,
2013-07-26 05:48:00,61.2,60.6,22.04,West,270,2.0,4.0,98,0.00,,,0.00,meteohub,2013-07-26 10:48:00,
2013-07-26 05:53:00,61.5,61.0,22.04,West,270,4.0,4.0,98,0.00,,,0.00,meteohub,2013-07-26 10:53:00,
2013-07-26 05:58:00,61.7,61.2,22.04,West,270,4.0,4.0,98,0.00,,,0.00,meteohub,2013-07-26 10:58:00,
2013-07-26 06:03:00,61.9,61.3,22.04,West,270,4.0,4.0,98,0.00,,,0.00,meteohub,2013-07-26 11:03:00,
2013-07-26 06:08:00,62.1,61.5,22.04,SW,225,4.0,5.0,98,0.00,,,0.00,meteohub,2013-07-26 11:08:00,
2013-07-26 06:13:00,62.2,61.7,22.04,NW,315,3.0,5.0,98,0.00,,,0.00,meteohub,2013-07-26 11:13:00,
2013-07-26 06:18:00,62.2,61.7,22.04,West,270,5.0,5.0,98,0.00,,,0.00,meteohub,2013-07-26 11:18:00,
2013-07-26 06:23:00,62.2,61.7,22.04,West,270,4.0,4.0,98,0.00,,,0.00,meteohub,2013-07-26 11:23:00,
2013-07-26 06:28:00,62.6,61.7,22.04,West,270,5.0,6.0,97,0.00,,,0.00,meteohub,2013-07-26 11:28:00,
2013-07-26 06:33:00,62.6,61.7,22.04,SW,225,6.0,6.0,97,0.00,,,0.00,meteohub,2013-07-26 11:33:00,
2013-07-26 06:38:00,62.8,61.9,22.04,West,270,4.0,6.0,97,0.00,,,0.00,meteohub,2013-07-26 11:38:00,
2013-07-26 06:43:00,63.0,62.1,22.04,West,270,4.0,6.0,97,0.00,,,0.00,meteohub,2013-07-26 11:43:00,
2013-07-26 06:48:00,63.0,62.1,22.04,West,270,4.0,6.0,97,0.00,,,0.00,meteohub,2013-07-26 11:48:00,
2013-07-26 06:53:00,63.0,62.1,22.04,West,270,4.0,5.0,97,0.00,,,0.00,meteohub,2013-07-26 11:53:00,
2013-07-26 06:58:00,63.1,62.2,22.04,West,270,4.0,6.0,97,0.00,,,0.00,meteohub,2013-07-26 11:58:00,
2013-07-26 07:03:00,63.3,62.4,22.04,West,270,4.0,6.0,97,0.00,,,0.00,meteohub,2013-07-26 12:03:00,
2013-07-26 07:08:00,63.5,62.6,22.04,NNW,338,4.0,6.0,97,0.00,,,0.00,meteohub,2013-07-26 12:08:00,
2013-07-26 07:13:00,63.7,62.8,22.04,West,270,2.0,5.0,97,0.00,,,0.00,meteohub,2013-07-26 12:13:00,
2013-07-26 07:18:00,63.9,63.0,22.04,West,270,2.0,5.0,97,0.00,,,0.00,meteohub,2013-07-26 12:18:00,
2013-07-26 07:23:00,64.0,63.1,22.04,SW,225,2.0,5.0,97,0.00,,,0.00,meteohub,2013-07-26 12:23:00,
2013-07-26 07:28:00,64.2,63.3,22.04,SW,225,0.0,4.0,97,0.00,,,0.00,meteohub,2013-07-26 12:28:00,
2013-07-26 07:33:00,64.6,64.2,22.04,West,270,2.0,3.0,99,0.00,,,0.00,meteohub,2013-07-26 12:33:00,
2013-07-26 07:38:00,65.5,65.1,22.04,NW,315,2.0,2.0,99,0.00,,,0.00,meteohub,2013-07-26 12:38:00,
2013-07-26 07:43:00,66.2,65.8,22.04,West,270,3.0,3.0,99,0.00,,,0.00,meteohub,2013-07-26 12:43:00,
2013-07-26 07:48:00,65.8,65.5,22.04,West,270,4.0,4.0,99,0.00,,,0.00,meteohub,2013-07-26 12:48:00,
2013-07-26 07:53:00,65.7,65.1,22.04,West,270,2.0,8.0,98,0.00,,,0.00,meteohub,2013-07-26 12:53:00,
2013-07-26 07:58:00,65.8,64.9,22.04,SW,225,3.0,8.0,97,0.00,,,0.00,meteohub,2013-07-26 12:58:00,
2013-07-26 08:03:00,65.8,64.9,22.04,North,0,2.0,8.0,97,0.00,,,0.00,meteohub,2013-07-26 13:03:00,
2013-07-26 08:08:00,65.7,64.4,22.04,West,270,2.0,4.0,96,0.00,,,0.00,meteohub,2013-07-26 13:08:00,
2013-07-26 08:13:00,65.7,64.4,22.04,South,180,2.0,3.0,96,0.00,,,0.00,meteohub,2013-07-26 13:13:00,
2013-07-26 08:18:00,66.0,64.8,22.04,SW,225,4.0,4.0,96,0.00,,,0.00,meteohub,2013-07-26 13:18:00,
2013-07-26 08:23:00,66.4,64.6,22.05,NW,315,6.0,6.0,94,0.00,,,0.00,meteohub,2013-07-26 13:23:00,
2013-07-26 08:28:00,66.6,64.4,22.05,NNW,338,8.0,8.0,93,0.00,,,0.00,meteohub,2013-07-26 13:28:00,
2013-07-26 08:33:00,66.7,64.6,22.05,West,270,2.0,8.0,93,0.00,,,0.00,meteohub,2013-07-26 13:33:00,
2013-07-26 08:38:00,67.5,65.1,22.05,NW,315,4.0,8.0,92,0.00,,,0.00,meteohub,2013-07-26 13:38:00,
2013-07-26 08:43:00,68.0,64.9,22.05,West,270,4.0,8.0,90,0.00,,,0.00,meteohub,2013-07-26 13:43:00,
2013-07-26 08:48:00,67.6,64.6,22.05,NW,315,8.0,8.0,90,0.00,,,0.00,meteohub,2013-07-26 13:48:00,
2013-07-26 08:53:00,68.7,64.9,22.05,SE,135,4.0,8.0,88,0.00,,,0.00,meteohub,2013-07-26 13:53:00,
2013-07-26 08:58:00,70.0,65.3,22.06,West,270,5.0,8.0,85,0.00,,,0.00,meteohub,2013-07-26 13:58:00,
2013-07-26 09:03:00,70.9,65.8,22.06,SW,225,10.0,10.0,84,0.00,,,0.00,meteohub,2013-07-26 14:03:00,
2013-07-26 09:08:00,70.7,64.9,22.06,SW,225,8.0,10.0,82,0.00,,,0.00,meteohub,2013-07-26 14:08:00,
2013-07-26 09:13:00,71.1,65.3,22.06,West,270,4.0,10.0,82,0.00,,,0.00,meteohub,2013-07-26 14:13:00,
2013-07-26 09:18:00,71.6,65.1,22.06,North,0,7.0,10.0,80,0.00,,,0.00,meteohub,2013-07-26 14:18:00,
2013-07-26 09:23:00,71.8,65.3,22.07,NW,315,8.0,8.0,80,0.00,,,0.00,meteohub,2013-07-26 14:23:00,
2013-07-26 09:28:00,73.9,66.6,22.07,North,0,9.0,9.0,78,0.00,,,0.00,meteohub,2013-07-26 14:28:00,
2013-07-26 09:33:00,74.3,65.8,22.08,South,180,3.0,11.0,75,0.00,,,0.00,meteohub,2013-07-26 14:33:00,
2013-07-26 09:38:00,73.0,64.9,22.08,SE,135,3.0,11.0,76,0.00,,,0.00,meteohub,2013-07-26 14:38:00,
2013-07-26 09:43:00,73.4,65.7,22.08,NE,45,7.0,11.0,77,0.00,,,0.00,meteohub,2013-07-26 14:43:00,
2013-07-26 09:48:00,72.5,64.9,22.08,West,270,6.0,9.0,77,0.00,,,0.00,meteohub,2013-07-26 14:48:00,
2013-07-26 09:53:00,71.8,64.9,22.08,West,270,2.0,9.0,79,0.00,,,0.00,meteohub,2013-07-26 14:53:00,
2013-07-26 09:58:00,71.6,65.1,22.08,SW,225,4.0,8.0,80,0.00,,,0.00,meteohub,2013-07-26 14:58:00,
2013-07-26 10:03:00,71.1,65.3,22.08,SW,225,7.0,9.0,82,0.00,,,0.00,meteohub,2013-07-26 15:03:00,
2013-07-26 10:08:00,70.7,65.3,22.08,NW,315,8.0,9.0,83,0.00,,,0.00,meteohub,2013-07-26 15:08:00,
2013-07-26 10:13:00,70.5,65.1,22.08,West,270,7.0,9.0,83,0.00,,,0.00,meteohub,2013-07-26 15:13:00,
2013-07-26 10:18:00,70.7,65.7,22.09,NW,315,8.0,11.0,84,0.00,,,0.00,meteohub,2013-07-26 15:18:00,
2013-07-26 10:23:00,71.2,65.8,22.09,West,270,9.0,11.0,83,0.00,,,0.00,meteohub,2013-07-26 15:23:00,
2013-07-26 10:28:00,72.3,66.2,22.09,West,270,7.0,11.0,81,0.00,,,0.00,meteohub,2013-07-26 15:28:00,
2013-07-26 10:33:00,73.6,66.7,22.09,West,270,5.0,10.0,79,0.00,,,0.00,meteohub,2013-07-26 15:33:00,
2013-07-26 10:38:00,73.0,65.8,22.09,West,270,4.0,11.0,78,0.00,,,0.00,meteohub,2013-07-26 15:38:00,
2013-07-26 10:43:00,73.9,67.1,22.09,West,270,5.0,11.0,79,0.00,,,0.00,meteohub,2013-07-26 15:43:00,
2013-07-26 10:48:00,74.3,65.8,22.10,North,0,4.0,11.0,75,0.00,,,0.00,meteohub,2013-07-26 15:48:00,
2013-07-26 10:53:00,74.8,66.4,22.10,East,90,5.0,10.0,75,0.00,,,0.00,meteohub,2013-07-26 15:53:00,
2013-07-26 10:58:00,74.7,65.8,22.10,NW,315,9.0,10.0,74,0.00,,,0.00,meteohub,2013-07-26 15:58:00,
2013-07-26 11:03:00,73.0,65.5,22.10,West,270,5.0,10.0,77,0.00,,,0.00,meteohub,2013-07-26 16:03:00,
2013-07-26 11:08:00,72.9,65.7,22.10,West,270,4.0,10.0,78,0.00,,,0.00,meteohub,2013-07-26 16:08:00,
2013-07-26 11:13:00,72.7,65.8,22.10,NW,315,4.0,10.0,79,0.00,,,0.00,meteohub,2013-07-26 16:13:00,
2013-07-26 11:18:00,72.3,65.5,22.10,South,180,4.0,8.0,79,0.00,,,0.00,meteohub,2013-07-26 16:18:00,
2013-07-26 11:23:00,72.1,65.7,22.10,SW,225,7.0,8.0,80,0.00,,,0.00,meteohub,2013-07-26 16:23:00,
2013-07-26 11:28:00,71.8,65.7,22.11,SW,225,7.0,12.0,81,0.00,,,0.00,meteohub,2013-07-26 16:28:00,
2013-07-26 11:33:00,72.5,66.7,22.11,NW,315,5.0,12.0,82,0.00,,,0.00,meteohub,2013-07-26 16:33:00,
2013-07-26 11:38:00,73.6,67.8,22.10,SW,225,2.0,12.0,82,0.00,,,0.00,meteohub,2013-07-26 16:38:00,
2013-07-26 11:44:00,74.8,67.8,22.11,West,270,4.0,9.0,79,0.00,,,0.00,meteohub,2013-07-26 16:44:00,
2013-07-26 11:49:00,75.0,67.3,22.11,SW,225,4.0,10.0,77,0.00,,,0.00,meteohub,2013-07-26 16:49:00,
2013-07-26 11:54:00,74.7,66.9,22.12,North,0,7.0,10.0,77,0.00,,,0.00,meteohub,2013-07-26 16:54:00,
2013-07-26 11:59:00,74.7,67.3,22.12,West,270,4.0,8.0,78,0.00,,,0.00,meteohub,2013-07-26 16:59:00,
2013-07-26 12:04:00,75.0,67.6,22.12,North,0,7.0,8.0,78,0.00,,,0.00,meteohub,2013-07-26 17:04:00,
2013-07-26 12:09:00,74.7,67.3,22.12,West,270,8.0,8.0,78,0.00,,,0.00,meteohub,2013-07-26 17:09:00,
2013-07-26 12:14:00,74.8,67.5,22.12,SW,225,8.0,8.0,78,0.00,,,0.00,meteohub,2013-07-26 17:14:00,
2013-07-26 12:19:00,74.5,67.1,22.11,WNW,293,9.0,11.0,78,0.00,,,0.00,meteohub,2013-07-26 17:19:00,
2013-07-26 12:24:00,73.8,66.9,22.12,SW,225,4.0,11.0,79,0.00,,,0.00,meteohub,2013-07-26 17:24:00,
2013-07-26 12:29:00,73.4,66.9,22.12,West,270,9.0,12.0,80,0.00,,,0.00,meteohub,2013-07-26 17:29:00,
2013-07-26 12:34:00,72.7,66.2,22.12,North,0,5.0,12.0,80,0.00,,,0.00,meteohub,2013-07-26 17:34:00,
2013-07-26 12:39:00,71.8,66.4,22.12,West,270,5.0,12.0,83,0.00,,,0.00,meteohub,2013-07-26 17:39:00,
2013-07-26 12:44:00,71.2,67.1,22.12,West,270,4.0,10.0,87,0.02,,,0.02,meteohub,2013-07-26 17:44:00,
2013-07-26 12:49:00,71.6,67.8,22.12,South,180,2.0,8.0,88,0.02,,,0.02,meteohub,2013-07-26 17:49:00,
2013-07-26 12:54:00,74.1,71.1,22.12,West,270,3.0,8.0,90,0.02,,,0.02,meteohub,2013-07-26 17:54:00,
2013-07-26 12:59:00,77.2,70.9,22.12,North,0,3.0,6.0,81,0.02,,,0.02,meteohub,2013-07-26 17:59:00,
2013-07-26 13:04:00,76.8,69.8,22.12,West,270,6.0,6.0,79,0.02,,,0.02,meteohub,2013-07-26 18:04:00,
2013-07-26 13:09:00,75.9,68.9,22.12,WSW,248,3.0,6.0,79,0.02,,,0.02,meteohub,2013-07-26 18:09:00,
2013-07-26 13:14:00,76.3,68.9,22.12,West,270,4.0,11.0,78,0.02,,,0.02,meteohub,2013-07-26 18:14:00,
2013-07-26 13:19:00,76.5,66.7,22.13,North,0,4.0,11.0,72,0.02,,,0.02,meteohub,2013-07-26 18:19:00,
2013-07-26 13:24:00,76.3,66.2,22.13,NE,45,11.0,12.0,71,0.02,,,0.02,meteohub,2013-07-26 18:24:00,
2013-07-26 13:29:00,74.7,64.2,22.13,North,0,12.0,12.0,70,0.02,,,0.02,meteohub,2013-07-26 18:29:00,
2013-07-26 13:34:00,74.3,64.2,22.13,East,90,8.0,12.0,71,0.02,,,0.02,meteohub,2013-07-26 18:34:00,
2013-07-26 13:39:00,77.7,64.9,22.13,NE,45,12.0,15.0,65,0.01,,,0.02,meteohub,2013-07-26 18:39:00,
2013-07-26 13:44:00,78.3,63.7,22.13,NNE,23,10.0,15.0,61,0.00,,,0.02,meteohub,2013-07-26 18:44:00,
2013-07-26 13:49:00,76.6,63.1,22.13,ENE,68,4.0,13.0,63,0.00,,,0.02,meteohub,2013-07-26 18:49:00,
2013-07-26 13:54:00,74.5,63.7,22.13,North,0,6.0,13.0,69,0.00,,,0.02,meteohub,2013-07-26 18:54:00,
2013-07-26 13:59:00,73.4,64.2,22.14,North,0,4.0,13.0,73,0.00,,,0.02,meteohub,2013-07-26 18:59:00,
2013-07-26 14:04:00,75.7,66.0,22.14,East,90,3.0,13.0,72,0.00,,,0.02,meteohub,2013-07-26 19:04:00,
2013-07-26 14:09:00,78.6,65.5,22.14,NE,45,9.0,11.0,64,0.00,,,0.02,meteohub,2013-07-26 19:09:00,
2013-07-26 14:14:00,79.9,64.2,22.15,NW,315,7.0,12.0,59,0.00,,,0.02,meteohub,2013-07-26 19:14:00,
2013-07-26 14:19:00,79.9,63.3,22.15,South,180,5.0,12.0,57,0.00,,,0.02,meteohub,2013-07-26 19:19:00,
2013-07-26 14:24:00,80.1,63.9,22.15,East,90,5.0,17.0,58,0.00,,,0.02,meteohub,2013-07-26 19:24:00,
2013-07-26 14:29:00,79.0,63.9,22.15,North,0,6.0,17.0,60,0.00,,,0.02,meteohub,2013-07-26 19:29:00,
2013-07-26 14:34:00,77.9,63.9,22.14,NW,315,7.0,17.0,62,0.00,,,0.02,meteohub,2013-07-26 19:34:00,
2013-07-26 14:39:00,75.9,61.0,22.15,NW,315,4.0,13.0,60,0.00,,,0.02,meteohub,2013-07-26 19:39:00,
2013-07-26 14:44:00,75.4,62.4,22.15,North,0,5.0,16.0,64,0.00,,,0.02,meteohub,2013-07-26 19:44:00,
2013-07-26 14:49:00,74.5,61.9,22.14,West,270,5.0,16.0,65,0.01,,,0.04,meteohub,2013-07-26 19:49:00,
2013-07-26 14:54:00,74.5,63.1,22.14,North,0,4.0,16.0,68,0.01,,,0.04,meteohub,2013-07-26 19:54:00,
2013-07-26 14:59:00,77.2,64.0,22.15,South,180,8.0,9.0,64,0.01,,,0.04,meteohub,2013-07-26 19:59:00,
2013-07-26 15:04:00,79.2,64.9,22.15,NE,45,8.0,12.0,62,0.01,,,0.04,meteohub,2013-07-26 20:04:00,
2013-07-26 15:09:00,78.8,60.8,22.15,NE,45,7.0,12.0,54,0.01,,,0.04,meteohub,2013-07-26 20:09:00,
2013-07-26 15:14:00,77.9,60.4,22.14,NNE,23,15.0,17.0,55,0.01,,,0.04,meteohub,2013-07-26 20:14:00,
2013-07-26 15:19:00,79.2,60.1,22.14,NE,45,14.0,19.0,52,0.01,,,0.04,meteohub,2013-07-26 20:19:00,
2013-07-26 15:24:00,79.7,59.4,22.14,North,0,23.0,23.0,50,0.01,,,0.04,meteohub,2013-07-26 20:24:00,
2013-07-26 15:29:00,78.4,58.3,22.14,NW,315,9.0,19.0,50,0.01,,,0.04,meteohub,2013-07-26 20:29:00,
2013-07-26 15:34:00,78.6,58.5,22.14,North,0,10.0,23.0,50,0.01,,,0.04,meteohub,2013-07-26 20:34:00,
2013-07-26 15:39:00,80.2,58.1,22.14,NE,45,16.0,23.0,47,0.01,,,0.04,meteohub,2013-07-26 20:39:00,
2013-07-26 15:44:00,80.4,57.2,22.14,SW,225,11.0,18.0,45,0.00,,,0.04,meteohub,2013-07-26 20:44:00,
2013-07-26 15:49:00,80.2,53.8,22.14,North,0,5.0,16.0,40,0.00,,,0.04,meteohub,2013-07-26 20:49:00,
2013-07-26 15:54:00,80.4,54.0,22.14,North,0,11.0,16.0,40,0.00,,,0.04,meteohub,2013-07-26 20:54:00,
2013-07-26 15:59:00,81.0,52.2,22.14,East,90,14.0,16.0,37,0.00,,,0.04,meteohub,2013-07-26 20:59:00,
2013-07-26 16:04:00,80.1,52.9,22.14,East,90,9.0,16.0,39,0.00,,,0.04,meteohub,2013-07-26 21:04:00,
2013-07-26 16:09:00,81.1,53.8,22.14,NNE,23,11.0,19.0,39,0.00,,,0.04,meteohub,2013-07-26 21:09:00,
2013-07-26 16:14:00,79.9,53.4,22.14,NW,315,9.0,19.0,40,0.00,,,0.04,meteohub,2013-07-26 21:14:00,
2013-07-26 16:19:00,79.5,54.5,22.14,East,90,5.0,19.0,42,0.00,,,0.04,meteohub,2013-07-26 21:19:00,
2013-07-26 16:24:00,81.7,55.0,22.14,East,90,9.0,13.0,40,0.00,,,0.04,meteohub,2013-07-26 21:24:00,
2013-07-26 16:29:00,79.5,54.5,22.13,NW,315,11.0,15.0,42,0.00,,,0.04,meteohub,2013-07-26 21:29:00,
2013-07-26 16:34:00,79.9,54.7,22.13,NE,45,16.0,16.0,42,0.00,,,0.04,meteohub,2013-07-26 21:34:00,
2013-07-26 16:39:00,79.7,54.0,22.13,East,90,8.0,15.0,41,0.00,,,0.04,meteohub,2013-07-26 21:39:00,
2013-07-26 16:44:00,77.0,52.9,22.13,South,180,6.0,18.0,43,0.00,,,0.04,meteohub,2013-07-26 21:44:00,
2013-07-26 16:49:00,76.3,54.0,22.12,East,90,8.0,20.0,46,0.00,,,0.04,meteohub,2013-07-26 21:49:00,
2013-07-26 16:54:00,77.9,54.9,22.12,West,270,8.0,20.0,45,0.00,,,0.04,meteohub,2013-07-26 21:54:00,
2013-07-26 16:59:00,79.7,55.2,22.12,East,90,8.0,20.0,43,0.00,,,0.04,meteohub,2013-07-26 21:59:00,
2013-07-26 17:04:00,78.1,54.3,22.12,North,0,11.0,16.0,44,0.00,,,0.04,meteohub,2013-07-26 22:04:00,
2013-07-26 17:09:00,77.0,55.2,22.11,SE,135,5.0,16.0,47,0.00,,,0.04,meteohub,2013-07-26 22:09:00,
2013-07-26 17:14:00,78.1,55.6,22.11,SE,135,7.0,13.0,46,0.00,,,0.04,meteohub,2013-07-26 22:14:00,
2013-07-26 17:19:00,78.8,55.0,22.12,NE,45,10.0,13.0,44,0.00,,,0.04,meteohub,2013-07-26 22:19:00,
2013-07-26 17:24:00,78.3,54.5,22.11,NE,45,8.0,12.0,44,0.00,,,0.04,meteohub,2013-07-26 22:24:00,
2013-07-26 17:29:00,77.0,54.0,22.11,North,0,15.0,15.0,45,0.00,,,0.04,meteohub,2013-07-26 22:29:00,
2013-07-26 17:34:00,77.2,54.1,22.11,NW,315,7.0,18.0,45,0.00,,,0.04,meteohub,2013-07-26 22:34:00,
2013-07-26 17:39:00,75.4,54.3,22.11,North,0,15.0,18.0,48,0.00,,,0.04,meteohub,2013-07-26 22:39:00,
2013-07-26 17:44:00,74.5,55.2,22.11,NE,45,7.0,18.0,51,0.00,,,0.04,meteohub,2013-07-26 22:44:00,
2013-07-26 17:49:00,74.3,55.0,22.10,WNW,293,11.0,15.0,51,0.00,,,0.04,meteohub,2013-07-26 22:49:00,
2013-07-26 17:54:00,74.3,55.0,22.11,East,90,8.0,15.0,51,0.00,,,0.04,meteohub,2013-07-26 22:54:00,
2013-07-26 17:59:00,73.9,55.2,22.11,NE,45,9.0,14.0,52,0.00,,,0.04,meteohub,2013-07-26 22:59:00,
2013-07-26 18:04:00,74.1,55.4,22.11,NE,45,4.0,14.0,52,0.00,,,0.04,meteohub,2013-07-26 23:04:00,
2013-07-26 18:09:00,74.7,56.5,22.11,NE,45,2.0,12.0,53,0.00,,,0.04,meteohub,2013-07-26 23:09:00,
2013-07-26 18:14:00,74.7,56.5,22.11,North,0,2.0,10.0,53,0.00,,,0.04,meteohub,2013-07-26 23:14:00,
2013-07-26 18:19:00,75.4,55.9,22.11,North,0,5.0,9.0,51,0.00,,,0.04,meteohub,2013-07-26 23:19:00,
2013-07-26 18:24:00,77.0,54.7,22.10,North,0,7.0,10.0,46,0.00,,,0.04,meteohub,2013-07-26 23:24:00,
2013-07-26 18:29:00,77.4,54.3,22.10,NE,45,12.0,15.0,45,0.00,,,0.04,meteohub,2013-07-26 23:29:00,
2013-07-26 18:34:00,77.0,54.7,22.10,East,90,9.0,15.0,46,0.00,,,0.04,meteohub,2013-07-26 23:34:00,
2013-07-26 18:39:00,76.8,54.5,22.10,North,0,4.0,15.0,46,0.00,,,0.04,meteohub,2013-07-26 23:39:00,
2013-07-26 18:44:00,75.2,53.6,22.10,NE,45,11.0,13.0,47,0.00,,,0.04,meteohub,2013-07-26 23:44:00,
2013-07-26 18:50:00,73.2,54.0,22.10,North,0,8.0,16.0,51,0.00,,,0.04,meteohub,2013-07-26 23:50:00,
2013-07-26 18:54:00,72.1,53.6,22.10,North,0,11.0,16.0,52,0.00,,,0.04,meteohub,2013-07-26 23:54:00,
2013-07-26 19:00:00,72.0,54.0,22.10,East,90,6.0,16.0,53,0.00,,,0.04,meteohub,2013-07-27 00:00:00,
2013-07-26 19:05:00,72.1,54.5,22.09,East,90,6.0,11.0,54,0.00,,,0.04,meteohub,2013-07-27 00:05:00,
2013-07-26 19:10:00,74.1,55.4,22.10,NE,45,11.0,11.0,52,0.00,,,0.00,meteohub,2013-07-27 00:10:00,
2013-07-26 19:15:00,74.8,56.1,22.09,East,90,8.0,11.0,52,0.00,,,0.00,meteohub,2013-07-27 00:15:00,
2013-07-26 19:20:00,74.8,55.6,22.09,NE,45,14.0,14.0,51,0.00,,,0.00,meteohub,2013-07-27 00:20:00,
2013-07-26 19:25:00,74.5,54.7,22.09,NE,45,8.0,12.0,50,0.00,,,0.00,meteohub,2013-07-27 00:25:00,
2013-07-26 19:30:00,73.0,53.8,22.09,East,90,11.0,14.0,51,0.00,,,0.00,meteohub,2013-07-27 00:30:00,
2013-07-26 19:35:00,72.1,54.1,22.09,ENE,68,7.0,14.0,53,0.00,,,0.00,meteohub,2013-07-27 00:35:00,
2013-07-26 19:40:00,71.4,54.5,22.08,East,90,6.0,13.0,55,0.00,,,0.00,meteohub,2013-07-27 00:40:00,
2013-07-26 19:45:00,70.9,54.3,22.09,NW,315,5.0,13.0,56,0.00,,,0.00,meteohub,2013-07-27 00:45:00,
2013-07-26 19:50:00,70.9,54.3,22.08,NW,315,5.0,11.0,56,0.00,,,0.00,meteohub,2013-07-27 00:50:00,
2013-07-26 19:55:00,70.2,54.7,22.08,NE,45,5.0,10.0,58,0.00,,,0.00,meteohub,2013-07-27 00:55:00,
2013-07-26 20:00:00,69.8,54.9,22.08,North,0,3.0,10.0,59,0.00,,,0.00,meteohub,2013-07-27 01:00:00,
2013-07-26 20:05:00,69.4,55.4,22.08,West,270,3.0,6.0,61,0.00,,,0.00,meteohub,2013-07-27 01:05:00,
2013-07-26 20:10:00,69.3,55.8,22.08,North,0,7.0,7.0,62,0.00,,,0.00,meteohub,2013-07-27 01:10:00,
2013-07-26 20:12:00,69.3,55.8,22.08,NW,315,5.0,7.0,62,0.00,,,0.00,meteohub,2013-07-27 01:12:00,
2013-07-26 20:17:00,69.1,55.9,22.08,NW,315,3.0,7.0,63,0.00,,,0.00,meteohub,2013-07-27 01:17:00,
2013-07-26 20:22:00,68.9,55.8,22.08,NE,45,3.0,8.0,63,0.00,,,0.00,meteohub,2013-07-27 01:22:00,
2013-07-26 20:27:00,68.7,56.1,22.07,NE,45,9.0,9.0,64,0.00,,,0.00,meteohub,2013-07-27 01:27:00,
2013-07-26 20:32:00,68.5,55.9,22.07,SW,225,4.0,10.0,64,0.00,,,0.00,meteohub,2013-07-27 01:32:00,
2013-07-26 20:37:00,68.5,56.3,22.07,SW,225,3.0,10.0,65,0.00,,,0.00,meteohub,2013-07-27 01:37:00,
2013-07-26 20:42:00,68.4,56.1,22.07,East,90,2.0,9.0,65,0.00,,,0.00,meteohub,2013-07-27 01:42:00,
2013-07-26 20:47:00,68.2,55.9,22.07,East,90,4.0,7.0,65,0.00,,,0.00,meteohub,2013-07-27 01:47:00,
2013-07-26 20:52:00,68.0,56.3,22.07,NE,45,6.0,7.0,66,0.00,,,0.00,meteohub,2013-07-27 01:52:00,
2013-07-26 20:57:00,67.6,56.7,22.08,SE,135,4.0,7.0,68,0.00,,,0.00,meteohub,2013-07-27 01:57:00,
2013-07-26 21:02:00,67.5,57.0,22.07,North,0,5.0,6.0,69,0.00,,,0.00,meteohub,2013-07-27 02:02:00,
2013-07-26 21:07:00,67.1,57.0,22.07,East,90,6.0,7.0,70,0.00,,,0.00,meteohub,2013-07-27 02:07:00,
2013-07-26 21:12:00,66.9,56.8,22.07,NE,45,7.0,7.0,70,0.00,,,0.00,meteohub,2013-07-27 02:12:00,
2013-07-26 21:17:00,66.9,56.8,22.07,East,90,5.0,8.0,70,0.00,,,0.00,meteohub,2013-07-27 02:17:00,
2013-07-26 21:22:00,66.9,57.2,22.07,East,90,5.0,8.0,71,0.00,,,0.00,meteohub,2013-07-27 02:22:00,
2013-07-26 21:27:00,66.9,57.2,22.07,East,90,9.0,9.0,71,0.00,,,0.00,meteohub,2013-07-27 02:27:00,
2013-07-26 21:32:00,66.9,57.2,22.07,NE,45,11.0,11.0,71,0.00,,,0.00,meteohub,2013-07-27 02:32:00,
2013-07-26 21:37:00,66.7,57.0,22.07,North,0,12.0,12.0,71,0.00,,,0.00,meteohub,2013-07-27 02:37:00,
2013-07-26 21:42:00,66.7,57.0,22.07,NE,45,8.0,12.0,71,0.00,,,0.00,meteohub,2013-07-27 02:42:00,
2013-07-26 21:47:00,66.6,56.8,22.07,ESE,113,8.0,14.0,71,0.00,,,0.00,meteohub,2013-07-27 02:47:00,
2013-07-26 21:52:00,66.6,56.8,22.07,ESE,113,8.0,14.0,71,0.00,,,0.00,meteohub,2013-07-27 02:52:00,
2013-07-26 21:57:00,66.2,56.5,22.06,NE,45,9.0,14.0,71,0.00,,,0.00,meteohub,2013-07-27 02:57:00,
2013-07-26 22:02:00,65.8,56.5,22.06,East,90,13.0,15.0,72,0.00,,,0.00,meteohub,2013-07-27 03:02:00,
2013-07-26 22:07:00,65.7,56.3,22.06,NE,45,10.0,15.0,72,0.00,,,0.00,meteohub,2013-07-27 03:07:00,
2013-07-26 22:12:00,65.3,56.5,22.06,SE,135,8.0,15.0,73,0.00,,,0.00,meteohub,2013-07-27 03:12:00,
2013-07-26 22:17:00,64.9,56.1,22.06,NE,45,11.0,17.0,73,0.00,,,0.00,meteohub,2013-07-27 03:17:00,
2013-07-26 22:22:00,64.6,55.8,22.06,East,90,15.0,17.0,73,0.00,,,0.00,meteohub,2013-07-27 03:22:00,
2013-07-26 22:27:00,64.2,55.4,22.06,East,90,11.0,21.0,73,0.00,,,0.00,meteohub,2013-07-27 03:27:00,
2013-07-26 22:32:00,63.7,54.9,22.06,SE,135,11.0,21.0,73,0.00,,,0.00,meteohub,2013-07-27 03:32:00,
2013-07-26 22:37:00,63.1,54.7,22.05,East,90,17.0,20.0,74,0.00,,,0.00,meteohub,2013-07-27 03:37:00,
2013-07-26 22:42:00,62.2,54.5,22.05,ENE,68,17.0,20.0,76,0.00,,,0.00,meteohub,2013-07-27 03:42:00,
2013-07-26 22:47:00,61.7,54.5,22.04,North,0,14.0,20.0,77,0.00,,,0.00,meteohub,2013-07-27 03:47:00,
2013-07-26 22:52:00,61.2,54.3,22.04,ENE,68,18.0,18.0,78,0.00,,,0.00,meteohub,2013-07-27 03:52:00,
2013-07-26 22:57:00,60.6,53.8,22.05,East,90,17.0,18.0,78,0.00,,,0.00,meteohub,2013-07-27 03:57:00,
2013-07-26 23:01:00,60.4,54.0,22.04,ESE,113,13.0,18.0,79,0.00,,,0.00,meteohub,2013-07-27 04:01:00,
2013-07-26 23:02:00,60.4,54.0,22.04,ESE,113,13.0,18.0,79,0.00,,,0.00,meteohub,2013-07-27 04:02:00,
2013-07-26 23:06:00,60.4,54.0,22.04,ESE,113,13.0,18.0,79,0.00,,,0.00,meteohub,2013-07-27 04:06:00,
2013-07-26 23:11:00,59.5,53.4,22.04,ENE,68,13.0,17.0,80,0.00,,,0.00,meteohub,2013-07-27 04:11:00,
2013-07-26 23:16:00,59.2,53.1,22.04,NE,45,11.0,16.0,80,0.00,,,0.00,meteohub,2013-07-27 04:16:00,
2013-07-26 23:21:00,59.0,52.9,22.04,East,90,13.0,16.0,80,0.00,,,0.00,meteohub,2013-07-27 04:21:00,
2013-07-26 23:26:00,58.5,52.3,22.03,SE,135,15.0,15.0,80,0.00,,,0.00,meteohub,2013-07-27 04:26:00,
2013-07-26 23:31:00,58.1,51.6,22.03,East,90,13.0,17.0,79,0.00,,,0.00,meteohub,2013-07-27 04:31:00,
2013-07-26 23:36:00,57.9,51.1,22.03,NE,45,11.0,17.0,78,0.00,,,0.00,meteohub,2013-07-27 04:36:00,
2013-07-26 23:41:00,57.7,50.9,22.03,East,90,8.0,17.0,78,0.00,,,0.00,meteohub,2013-07-27 04:41:00,
2013-07-26 23:46:00,57.7,50.9,22.03,East,90,11.0,17.0,78,0.00,,,0.00,meteohub,2013-07-27 04:46:00,
2013-07-26 23:51:00,57.7,50.5,22.03,East,90,10.0,15.0,77,0.00,,,0.00,meteohub,2013-07-27 04:51:00,
2013-07-26 23:56:00,57.6,50.4,22.03,East,90,5.0,15.0,77,0.00,,,0.00,meteohub,2013-07-27 04:56:00,